createdAt,value
2018-03-26T00:00:01.241Z,60.03
2018-03-26T00:02:28.698Z,60.13
2018-03-26T00:04:56.175Z,60.39
2018-03-26T00:07:23.651Z,60.36
2018-03-26T00:09:51.172Z,60.40
2018-03-26T00:12:18.626Z,60.10
2018-03-26T00:14:46.114Z,60.32
2018-03-26T00:17:13.586Z,60.16
2018-03-26T00:19:41.036Z,60.24
2018-03-26T00:22:08.483Z,60.19
2018-03-26T00:24:36.229Z,59.99
2018-03-26T00:27:03.688Z,59.99
2018-03-26T00:29:31.174Z,60.40
2018-03-26T00:31:58.669Z,60.29
2018-03-26T00:34:26.160Z,60.15
2018-03-26T00:36:53.635Z,59.92
2018-03-26T00:39:21.140Z,60.38
2018-03-26T00:41:48.606Z,60.70
2018-03-26T00:44:16.200Z,61.10
2018-03-26T00:46:44.424Z,61.23
2018-03-26T00:49:11.956Z,61.77
2018-03-26T00:51:39.461Z,61.88
2018-03-26T00:54:06.938Z,62.28
2018-03-26T00:56:34.421Z,62.61
2018-03-26T00:59:01.877Z,62.87
2018-03-26T01:01:29.307Z,62.58
2018-03-26T01:03:57.612Z,62.46
2018-03-26T01:06:25.116Z,62.53
2018-03-26T01:08:52.600Z,62.47
2018-03-26T01:11:20.125Z,62.47
2018-03-26T01:13:47.554Z,62.53
2018-03-26T01:16:15.000Z,62.70
2018-03-26T01:18:42.464Z,62.83
2018-03-26T01:21:09.940Z,62.66
2018-03-26T01:23:37.400Z,62.73
2018-03-26T01:26:04.866Z,62.38
2018-03-26T01:28:32.313Z,62.36
2018-03-26T01:30:59.782Z,62.49
2018-03-26T01:33:27.236Z,62.54
2018-03-26T01:35:54.671Z,62.47
2018-03-26T01:38:22.160Z,62.51
2018-03-26T01:40:49.584Z,62.41
2018-03-26T01:43:17.130Z,62.68
2018-03-26T01:45:44.588Z,62.21
2018-03-26T01:48:12.028Z,62.19
2018-03-26T01:50:39.502Z,62.31
2018-03-26T01:53:06.976Z,61.95
2018-03-26T01:55:34.502Z,61.87
2018-03-26T01:58:01.986Z,61.95
2018-03-26T02:00:29.448Z,61.91
2018-03-26T02:02:56.992Z,61.90
2018-03-26T02:05:24.450Z,61.99
2018-03-26T02:07:51.946Z,61.99
2018-03-26T02:10:19.398Z,61.86
2018-03-26T02:12:47.226Z,61.70
2018-03-26T02:15:14.664Z,61.80
2018-03-26T02:17:42.116Z,61.86
2018-03-26T02:20:09.608Z,61.79
2018-03-26T02:22:37.072Z,61.77
2018-03-26T02:25:04.524Z,61.98
2018-03-26T02:27:32.060Z,62.23
2018-03-26T02:29:59.507Z,61.89
2018-03-26T02:32:26.967Z,61.65
2018-03-26T02:34:54.451Z,61.80
2018-03-26T02:37:21.901Z,61.88
2018-03-26T02:39:49.504Z,61.49
2018-03-26T02:42:16.959Z,61.46
2018-03-26T02:44:44.417Z,61.58
2018-03-26T02:47:11.856Z,61.82
2018-03-26T02:49:39.369Z,61.85
2018-03-26T02:52:06.882Z,61.72
2018-03-26T02:54:34.357Z,61.84
2018-03-26T02:57:01.845Z,61.58
2018-03-26T02:59:29.318Z,61.46
2018-03-26T03:01:56.831Z,61.65
2018-03-26T03:04:24.285Z,61.40
2018-03-26T03:06:52.969Z,61.26
2018-03-26T03:09:20.444Z,61.34
2018-03-26T03:11:47.952Z,61.39
2018-03-26T03:14:16.436Z,61.79
2018-03-26T03:16:44.064Z,61.92
2018-03-26T03:19:11.568Z,61.73
2018-03-26T03:21:39.152Z,61.70
2018-03-26T03:24:06.944Z,61.82
2018-03-26T03:26:35.252Z,61.94
2018-03-26T03:29:02.713Z,61.86
2018-03-26T03:31:31.243Z,61.94
2018-03-26T03:33:58.748Z,61.88
2018-03-26T03:36:27.402Z,61.46
2018-03-26T03:38:54.870Z,61.62
2018-03-26T03:41:22.350Z,61.96
2018-03-26T03:43:50.724Z,61.83
2018-03-26T03:46:18.182Z,61.79
2018-03-26T03:48:45.819Z,61.82
2018-03-26T03:51:13.312Z,61.59
2018-03-26T03:53:40.758Z,61.91
2018-03-26T03:56:08.214Z,61.78
2018-03-26T03:58:35.716Z,61.85
2018-03-26T04:01:03.186Z,61.63
2018-03-26T04:03:30.708Z,61.86
2018-03-26T04:05:58.253Z,62.08
2018-03-26T04:08:25.740Z,62.19
2018-03-26T04:10:53.220Z,62.03
2018-03-26T04:13:20.787Z,61.85
2018-03-26T04:15:48.228Z,61.80
2018-03-26T04:18:15.749Z,61.98
2018-03-26T04:20:43.202Z,62.00
2018-03-26T04:23:10.674Z,61.87
2018-03-26T04:25:38.176Z,61.81
2018-03-26T04:28:05.712Z,61.94
2018-03-26T04:30:33.168Z,61.94
2018-03-26T04:33:00.672Z,62.02
2018-03-26T04:35:28.153Z,62.13
2018-03-26T04:37:55.613Z,61.56
2018-03-26T04:40:23.086Z,61.52
2018-03-26T04:42:51.293Z,61.50
2018-03-26T04:45:18.788Z,61.62
2018-03-26T04:47:46.226Z,61.97
2018-03-26T04:50:14.770Z,62.19
2018-03-26T04:52:42.472Z,62.02
2018-03-26T04:55:09.932Z,62.05
2018-03-26T04:57:37.386Z,62.02
2018-03-26T05:00:04.881Z,62.03
2018-03-26T05:02:32.363Z,61.87
2018-03-26T05:04:59.890Z,62.14
2018-03-26T05:07:27.387Z,62.10
2018-03-26T05:09:54.873Z,62.36
2018-03-26T05:12:22.370Z,62.33
2018-03-26T05:14:49.870Z,62.28
2018-03-26T05:17:17.349Z,62.02
2018-03-26T05:19:44.836Z,62.12
2018-03-26T05:22:12.323Z,62.28
2018-03-26T05:24:39.775Z,62.48
2018-03-26T05:27:07.305Z,62.25
2018-03-26T05:29:34.762Z,62.36
2018-03-26T05:32:02.236Z,62.40
2018-03-26T05:34:29.731Z,62.37
2018-03-26T05:36:57.237Z,62.53
2018-03-26T05:39:24.691Z,62.42
2018-03-26T05:41:52.181Z,62.56
2018-03-26T05:44:20.890Z,62.53
2018-03-26T05:46:48.431Z,62.14
2018-03-26T05:49:15.883Z,61.95
2018-03-26T05:51:43.379Z,62.30
2018-03-26T05:54:10.843Z,62.44
2018-03-26T05:56:38.313Z,62.72
2018-03-26T05:59:05.824Z,62.43
2018-03-26T06:01:33.320Z,62.34
2018-03-26T06:04:00.775Z,62.30
2018-03-26T06:06:28.287Z,62.21
2018-03-26T06:08:55.769Z,62.04
2018-03-26T06:11:23.257Z,61.76
2018-03-26T06:13:50.761Z,62.17
2018-03-26T06:16:18.249Z,61.81
2018-03-26T06:18:45.684Z,62.38
2018-03-26T06:21:13.221Z,62.38
2018-03-26T06:23:41.217Z,61.64
2018-03-26T06:26:08.712Z,61.68
2018-03-26T06:28:36.271Z,61.94
2018-03-26T06:31:03.817Z,61.82
2018-03-26T06:33:31.378Z,61.99
2018-03-26T06:35:58.905Z,62.16
2018-03-26T06:38:32.047Z,62.18
2018-03-26T06:40:59.488Z,62.16
2018-03-26T06:43:27.019Z,62.01
2018-03-26T06:45:54.723Z,62.00
2018-03-26T06:48:22.338Z,62.30
2018-03-26T06:50:49.846Z,62.27
2018-03-26T06:53:17.573Z,62.35
2018-03-26T06:55:45.345Z,62.31
2018-03-26T06:58:12.883Z,62.25
2018-03-26T07:00:40.357Z,62.47
2018-03-26T07:03:09.104Z,62.62
2018-03-26T07:05:36.680Z,62.55
2018-03-26T07:08:04.227Z,62.30
2018-03-26T07:10:31.753Z,62.38
2018-03-26T07:12:59.255Z,62.67
2018-03-26T07:15:26.719Z,62.75
2018-03-26T07:17:54.182Z,62.88
2018-03-26T07:20:21.680Z,62.33
2018-03-26T07:22:49.133Z,62.62
2018-03-26T07:25:16.554Z,62.66
2018-03-26T07:27:44.075Z,62.61
2018-03-26T07:30:11.531Z,62.39
2018-03-26T07:32:39.047Z,62.15
2018-03-26T07:35:06.560Z,62.69
2018-03-26T07:37:34.003Z,62.42
2018-03-26T07:40:01.474Z,62.44
2018-03-26T07:42:28.950Z,62.42
2018-03-26T07:44:56.471Z,62.57
2018-03-26T07:47:23.981Z,62.75
2018-03-26T07:49:51.497Z,62.55
2018-03-26T07:52:19.011Z,62.29
2018-03-26T07:54:46.513Z,62.54
2018-03-26T07:57:14.659Z,62.14
2018-03-26T07:59:42.144Z,62.11
2018-03-26T08:02:09.629Z,62.08
2018-03-26T08:04:37.159Z,62.48
2018-03-26T08:07:04.628Z,62.56
2018-03-26T08:09:32.080Z,62.50
2018-03-26T08:11:59.568Z,62.64
2018-03-26T08:14:27.100Z,62.62
2018-03-26T08:16:54.559Z,62.68
2018-03-26T08:19:22.001Z,62.56
2018-03-26T08:21:49.509Z,62.44
2018-03-26T08:24:17.000Z,62.50
2018-03-26T08:26:44.634Z,62.52
2018-03-26T08:29:12.119Z,62.35
2018-03-26T08:31:39.594Z,62.71
2018-03-26T08:34:07.075Z,62.35
2018-03-26T08:36:34.673Z,62.15
2018-03-26T08:39:02.230Z,62.06
2018-03-26T08:41:29.743Z,62.08
2018-03-26T08:43:57.290Z,61.86
2018-03-26T08:46:24.791Z,61.63
2018-03-26T08:48:52.310Z,61.63
2018-03-26T08:51:19.852Z,61.33
2018-03-26T08:53:47.341Z,61.54
2018-03-26T08:56:14.813Z,61.78
2018-03-26T08:58:42.350Z,61.32
2018-03-26T09:01:19.432Z,61.79
2018-03-26T09:03:46.897Z,62.20
2018-03-26T09:06:14.383Z,61.83
2018-03-26T09:08:41.856Z,61.51
2018-03-26T09:11:09.363Z,61.56
2018-03-26T09:13:36.832Z,61.83
2018-03-26T09:16:04.301Z,61.86
2018-03-26T09:18:31.905Z,62.06
2018-03-26T09:20:59.389Z,62.19
2018-03-26T09:23:26.881Z,62.27
2018-03-26T09:25:54.384Z,62.22
2018-03-26T09:28:21.810Z,62.63
2018-03-26T09:30:49.289Z,62.58
2018-03-26T09:33:16.917Z,62.53
2018-03-26T09:35:44.374Z,62.79
2018-03-26T09:38:11.839Z,63.01
2018-03-26T09:40:39.308Z,62.81
2018-03-26T09:43:06.767Z,62.75
2018-03-26T09:45:34.268Z,62.81
2018-03-26T09:48:02.197Z,62.87
2018-03-26T09:50:29.707Z,62.60
2018-03-26T09:52:57.189Z,62.30
2018-03-26T09:55:24.713Z,62.37
2018-03-26T09:57:52.256Z,62.70
2018-03-26T10:00:19.739Z,62.62
2018-03-26T10:02:47.315Z,62.99
2018-03-26T10:05:14.802Z,62.91
2018-03-26T10:07:42.334Z,62.96
2018-03-26T10:10:24.052Z,62.76
2018-03-26T10:12:52.655Z,62.96
2018-03-26T10:15:20.141Z,63.65
2018-03-26T10:17:47.709Z,63.68
2018-03-26T10:20:15.255Z,63.76
2018-03-26T10:22:43.534Z,64.05
2018-03-26T10:25:11.110Z,64.31
2018-03-26T10:27:39.434Z,64.43
2018-03-26T10:30:06.947Z,64.48
2018-03-26T10:32:34.442Z,64.98
2018-03-26T10:35:01.900Z,64.91
2018-03-26T10:37:29.372Z,65.12
2018-03-26T10:39:56.901Z,65.76
2018-03-26T10:42:24.432Z,65.93
2018-03-26T10:44:51.922Z,65.71
2018-03-26T10:47:19.404Z,65.88
2018-03-26T10:49:46.878Z,65.75
2018-03-26T10:52:14.320Z,65.88
2018-03-26T10:54:41.972Z,65.89
2018-03-26T10:57:09.472Z,65.90
2018-03-26T10:59:36.948Z,66.05
2018-03-26T11:02:04.454Z,66.08
2018-03-26T11:04:32.150Z,66.19
2018-03-26T11:06:59.812Z,66.33
2018-03-26T11:09:27.373Z,66.32
2018-03-26T11:11:54.900Z,66.09
2018-03-26T11:14:22.393Z,66.09
2018-03-26T11:16:49.953Z,66.29
2018-03-26T11:19:17.426Z,66.45
2018-03-26T11:24:46.960Z,66.28
2018-03-26T11:27:14.406Z,66.34
2018-03-26T11:29:41.959Z,66.45
2018-03-26T11:32:09.512Z,66.44
2018-03-26T11:34:36.990Z,66.51
2018-03-26T11:37:04.478Z,66.64
2018-03-26T11:39:31.953Z,66.12
2018-03-26T11:44:52.014Z,66.28
2018-03-26T11:47:19.504Z,66.21
2018-03-26T11:49:47.028Z,66.18
2018-03-26T11:52:14.473Z,66.45
2018-03-26T11:54:41.952Z,66.78
2018-03-26T11:57:09.477Z,66.77
2018-03-26T11:59:36.963Z,66.80
2018-03-26T12:02:04.475Z,67.11
2018-03-26T12:04:32.010Z,67.37
2018-03-26T12:06:59.476Z,67.69
2018-03-26T12:09:26.975Z,68.61
2018-03-26T12:11:54.430Z,69.02
2018-03-26T12:14:21.932Z,69.22
2018-03-26T12:16:49.424Z,69.37
2018-03-26T12:19:16.946Z,69.56
2018-03-26T12:21:44.498Z,69.29
2018-03-26T12:24:23.749Z,68.99
2018-03-26T12:26:51.245Z,68.75
2018-03-26T12:29:30.616Z,68.34
2018-03-26T12:31:58.192Z,68.65
2018-03-26T12:34:37.421Z,68.50
2018-03-26T12:37:04.963Z,68.58
2018-03-26T12:39:33.285Z,68.31
2018-03-26T12:45:16.818Z,67.75
2018-03-26T12:47:44.296Z,67.30
2018-03-26T12:50:26.070Z,67.26
2018-03-26T12:52:54.338Z,67.80
2018-03-26T12:55:21.861Z,67.62
2018-03-26T12:58:01.136Z,67.34
2018-03-26T13:00:28.655Z,67.35
2018-03-26T13:02:56.222Z,67.23
2018-03-26T13:05:23.720Z,67.12
2018-03-26T13:07:51.196Z,67.06
2018-03-26T13:10:18.643Z,66.85
2018-03-26T13:12:46.088Z,66.87
2018-03-26T13:15:13.594Z,67.06
2018-03-26T13:17:41.154Z,66.56
2018-03-26T13:20:13.566Z,66.40
2018-03-26T13:22:41.104Z,66.29
2018-03-26T13:25:08.588Z,66.30
2018-03-26T13:27:36.122Z,65.86
2018-03-26T13:32:56.512Z,65.56
2018-03-26T13:35:24.001Z,65.35
2018-03-26T13:37:51.462Z,65.75
2018-03-26T13:40:18.928Z,65.71
2018-03-26T13:42:46.834Z,65.94
2018-03-26T13:45:14.718Z,66.03
2018-03-26T13:47:42.208Z,66.07
2018-03-26T13:53:02.484Z,64.81
2018-03-26T13:55:30.092Z,64.69
2018-03-26T13:57:57.642Z,65.02
2018-03-26T14:00:25.923Z,64.78
2018-03-26T14:02:53.479Z,64.42
2018-03-26T14:05:20.969Z,64.41
2018-03-26T14:07:48.461Z,63.89
2018-03-26T14:10:27.750Z,62.87
2018-03-26T14:13:07.027Z,61.41
2018-03-26T14:15:46.393Z,61.32
2018-03-26T14:18:14.000Z,61.91
2018-03-26T14:20:41.511Z,62.49
2018-03-26T14:23:09.040Z,63.26
2018-03-26T14:25:36.549Z,63.51
2018-03-26T14:28:04.035Z,63.72
2018-03-26T14:30:31.586Z,64.36
2018-03-26T14:32:59.032Z,65.07
2018-03-26T14:38:17.433Z,63.73
2018-03-26T14:40:45.836Z,63.22
2018-03-26T14:43:14.364Z,63.32
2018-03-26T14:45:41.895Z,63.77
2018-03-26T14:48:09.416Z,64.20
2018-03-26T14:50:36.875Z,64.44
2018-03-26T14:53:04.359Z,64.54
2018-03-26T14:55:32.006Z,64.96
2018-03-26T14:57:59.704Z,65.67
2018-03-26T15:00:27.173Z,66.27
2018-03-26T15:02:54.776Z,66.68
2018-03-26T15:05:22.317Z,67.01
2018-03-26T15:07:49.871Z,66.91
2018-03-26T15:10:17.345Z,66.61
2018-03-26T15:12:44.833Z,66.33
2018-03-26T15:15:12.446Z,65.75
2018-03-26T15:17:39.901Z,65.95
2018-03-26T15:20:07.843Z,66.14
2018-03-26T15:22:35.515Z,66.05
2018-03-26T15:25:02.977Z,65.91
2018-03-26T15:27:30.625Z,66.07
2018-03-26T15:29:58.986Z,66.04
2018-03-26T15:32:26.561Z,66.28
2018-03-26T15:34:54.105Z,66.91
2018-03-26T15:37:21.975Z,67.31
2018-03-26T15:42:25.584Z,69.15
2018-03-26T15:44:53.067Z,69.55
2018-03-26T15:47:20.529Z,69.62
2018-03-26T15:49:48.875Z,69.56
2018-03-26T15:52:16.393Z,69.49
2018-03-26T15:54:43.939Z,69.36
2018-03-26T15:57:11.507Z,69.63
2018-03-26T15:59:39.059Z,69.66
2018-03-26T16:02:10.915Z,69.48
2018-03-26T16:04:38.439Z,69.92
2018-03-26T16:07:05.946Z,70.24
2018-03-26T16:09:33.681Z,70.47
2018-03-26T16:12:01.257Z,70.39
2018-03-26T16:14:28.783Z,69.78
2018-03-26T16:16:56.263Z,69.60
2018-03-26T16:19:23.839Z,69.22
2018-03-26T16:21:52.598Z,68.90
2018-03-26T16:24:20.082Z,68.27
2018-03-26T16:26:47.632Z,67.77
2018-03-26T16:29:15.217Z,66.47
2018-03-26T16:31:42.935Z,66.59
2018-03-26T16:34:10.585Z,66.60
2018-03-26T16:36:38.118Z,66.99
2018-03-26T16:39:05.731Z,67.11
2018-03-26T16:41:44.888Z,67.33
2018-03-26T16:44:12.416Z,67.62
2018-03-26T16:46:39.942Z,67.92
2018-03-26T16:49:07.473Z,67.95
2018-03-26T16:51:34.995Z,67.89
2018-03-26T16:54:02.552Z,68.22
2018-03-26T16:56:30.067Z,68.14
2018-03-26T16:58:57.549Z,68.24
2018-03-26T17:01:25.093Z,68.35
2018-03-26T17:03:52.641Z,68.46
2018-03-26T17:06:20.139Z,68.64
2018-03-26T17:08:48.574Z,68.91
2018-03-26T17:11:35.486Z,69.12
2018-03-26T17:14:03.072Z,69.26
2018-03-26T17:16:30.629Z,69.49
2018-03-26T17:18:58.100Z,69.70
2018-03-26T17:21:31.445Z,69.79
2018-03-26T17:23:59.053Z,69.84
2018-03-26T17:26:26.583Z,70.08
2018-03-26T17:28:54.122Z,70.26
2018-03-26T17:31:36.269Z,70.44
2018-03-26T17:34:03.807Z,70.64
2018-03-26T17:36:31.833Z,70.68
2018-03-26T17:38:59.437Z,70.80
2018-03-26T17:41:26.952Z,70.77
2018-03-26T17:43:54.461Z,70.93
2018-03-26T17:46:21.973Z,71.16
2018-03-26T17:48:50.388Z,71.60
2018-03-26T17:51:17.943Z,71.82
2018-03-26T17:53:45.657Z,72.01
2018-03-26T17:56:13.253Z,72.09
2018-03-26T17:58:40.766Z,72.38
2018-03-26T18:01:08.319Z,72.29
2018-03-26T18:03:35.818Z,72.16
2018-03-26T18:06:03.452Z,72.30
2018-03-26T18:08:30.996Z,72.69
2018-03-26T18:10:58.483Z,72.76
2018-03-26T18:13:26.066Z,72.89
2018-03-26T18:15:53.807Z,73.03
2018-03-26T18:18:21.335Z,73.32
2018-03-26T18:20:48.894Z,73.33
2018-03-26T18:23:16.466Z,73.28
2018-03-26T18:25:43.998Z,73.09
2018-03-26T18:28:11.562Z,73.21
2018-03-26T18:30:39.100Z,73.24
2018-03-26T18:33:07.655Z,73.34
2018-03-26T18:35:35.298Z,73.44
2018-03-26T18:38:03.018Z,73.50
2018-03-26T18:40:30.855Z,73.79
2018-03-26T18:42:58.387Z,73.86
2018-03-26T18:45:25.916Z,73.93
2018-03-26T18:47:53.517Z,74.24
2018-03-26T18:50:21.023Z,74.31
2018-03-26T18:52:48.575Z,74.36
2018-03-26T18:55:16.051Z,74.45
2018-03-26T18:57:43.850Z,74.55
2018-03-26T19:00:16.554Z,74.57
2018-03-26T19:02:44.064Z,74.58
2018-03-26T19:05:11.617Z,74.52
2018-03-26T19:07:39.168Z,74.62
2018-03-26T19:10:06.767Z,74.68
2018-03-26T19:12:34.247Z,74.68
2018-03-26T19:15:01.703Z,74.72
2018-03-26T19:17:29.226Z,74.65
2018-03-26T19:19:56.854Z,74.67
2018-03-26T19:22:24.394Z,74.38
2018-03-26T19:24:51.903Z,74.21
2018-03-26T19:27:19.420Z,73.92
2018-03-26T19:29:46.982Z,73.77
2018-03-26T19:32:14.539Z,73.89
2018-03-26T19:34:42.190Z,73.93
2018-03-26T19:37:09.778Z,74.21
2018-03-26T19:39:37.298Z,74.33
2018-03-26T19:42:04.803Z,74.00
2018-03-26T19:44:32.347Z,73.27
2018-03-26T19:47:00.006Z,73.27
2018-03-26T19:49:27.504Z,72.78
2018-03-26T19:51:55.030Z,72.29
2018-03-26T19:54:22.604Z,71.80
2018-03-26T19:56:50.151Z,71.14
2018-03-26T19:59:17.624Z,70.74
2018-03-26T20:01:45.194Z,69.84
2018-03-26T20:04:12.754Z,69.04
2018-03-26T20:06:40.306Z,68.78
2018-03-26T20:09:08.273Z,68.53
2018-03-26T20:11:35.744Z,67.93
2018-03-26T20:14:03.574Z,68.03
2018-03-26T20:16:31.274Z,67.14
2018-03-26T20:18:58.782Z,67.42
2018-03-26T20:21:26.358Z,66.89
2018-03-26T20:23:53.894Z,66.86
2018-03-26T20:26:21.442Z,66.62
2018-03-26T20:28:48.904Z,66.76
2018-03-26T20:31:16.416Z,65.89
2018-03-26T20:33:43.924Z,66.12
2018-03-26T20:36:11.506Z,66.13
2018-03-26T20:38:38.986Z,66.45
2018-03-26T20:41:06.531Z,65.38
2018-03-26T20:43:34.034Z,65.44
2018-03-26T20:46:01.536Z,65.82
2018-03-26T20:48:29.028Z,65.70
2018-03-26T20:50:56.564Z,65.94
2018-03-26T20:53:24.074Z,65.87
2018-03-26T20:55:51.606Z,66.08
2018-03-26T20:58:19.105Z,66.08
2018-03-26T21:00:46.638Z,66.42
2018-03-26T21:03:14.128Z,66.11
2018-03-26T21:05:41.628Z,66.44
2018-03-26T21:08:09.138Z,67.18
2018-03-26T21:10:36.812Z,67.91
2018-03-26T21:13:04.343Z,68.67
2018-03-26T21:15:31.842Z,69.39
2018-03-26T21:17:59.303Z,70.14
2018-03-26T21:20:26.864Z,70.55
2018-03-26T21:22:54.832Z,71.00
2018-03-26T21:25:22.304Z,71.37
2018-03-26T21:27:49.771Z,72.12
2018-03-26T21:33:09.558Z,73.30
2018-03-26T21:35:37.014Z,73.69
2018-03-26T21:38:04.569Z,73.53
2018-03-26T21:40:33.590Z,73.78
2018-03-26T21:43:01.054Z,73.45
2018-03-26T21:45:28.616Z,73.70
2018-03-26T21:47:56.116Z,73.84
2018-03-26T21:50:23.639Z,74.02
2018-03-26T21:52:51.192Z,74.03
2018-03-26T21:55:18.674Z,74.16
2018-03-26T21:57:46.238Z,74.15
2018-03-26T22:00:21.603Z,74.05
2018-03-26T22:02:49.338Z,74.43
2018-03-26T22:05:16.832Z,74.67
2018-03-26T22:07:44.535Z,74.78
2018-03-26T22:10:11.982Z,74.89
2018-03-26T22:12:39.582Z,74.77
2018-03-26T22:15:07.284Z,74.76
2018-03-26T22:17:34.749Z,74.95
2018-03-26T22:20:03.024Z,74.60
2018-03-26T22:22:30.527Z,74.50
2018-03-26T22:24:58.085Z,73.99
2018-03-26T22:27:25.624Z,73.95
2018-03-26T22:29:53.080Z,73.96
2018-03-26T22:32:30.266Z,73.99
2018-03-26T22:34:57.789Z,74.13
2018-03-26T22:37:25.271Z,74.16
2018-03-26T22:39:53.798Z,73.79
2018-03-26T22:42:31.050Z,73.65
2018-03-26T22:44:58.534Z,73.68
2018-03-26T22:47:26.035Z,73.96
2018-03-26T22:49:53.703Z,74.00
2018-03-26T22:52:21.161Z,74.03
2018-03-26T22:54:48.630Z,73.95
2018-03-26T22:57:16.128Z,73.82
2018-03-26T22:59:43.723Z,73.96
2018-03-26T23:02:11.209Z,74.08
2018-03-26T23:04:38.705Z,74.06
2018-03-26T23:07:06.221Z,74.12
2018-03-26T23:09:33.904Z,73.77
2018-03-26T23:12:15.829Z,73.63
2018-03-26T23:14:43.394Z,73.87
2018-03-26T23:17:11.006Z,74.04
2018-03-26T23:19:38.516Z,74.32
2018-03-26T23:22:06.013Z,74.55
2018-03-26T23:24:33.508Z,74.48
2018-03-26T23:27:01.035Z,74.47
2018-03-26T23:29:28.566Z,74.42
2018-03-26T23:31:56.073Z,74.30
2018-03-26T23:34:23.534Z,74.38
2018-03-26T23:36:51.111Z,74.32
2018-03-26T23:39:18.626Z,74.47
2018-03-26T23:41:46.099Z,74.82
2018-03-26T23:44:13.547Z,75.13
2018-03-26T23:46:41.003Z,75.05
2018-03-26T23:49:08.436Z,74.80
2018-03-26T23:51:38.882Z,74.67
2018-03-26T23:54:06.350Z,74.46
2018-03-26T23:56:33.817Z,74.64
2018-03-26T23:59:01.361Z,74.44
